Saubara, Brazil
Current Conditions -  °F | °C
As of 3:00 AM on Sunday 23 Nov 2014 (Local Time) from SBSV Reporting Station
Scattered Clouds Scattered Clouds  
Wind Chill: 75°   Ceiling: Unl
Heat Index: 75°   Visibility: 6mi
Dew Point: 70°   Wind: 0mph
Humidity: 83%   Direction: NA
Pressure: 29.88"   Gusts: NA
Location:  12.75°S, 38.77°W
Report Text: SBSV 230600Z 00000KT 9999 SCT017 FEW020TCU SCT070 24/21 Q1012
Loading
Personal Weather Stations






























Interactive Weather Map New forecast layout! Learn more

10-Day Weather Forecast

Advertisements
Track Severe Weather on mobile